Time;durP1;ratioP1;P1;durP2;ratioP2;P2;SDS_P1;SDS_P2;PMS_P1;PMS_P2;Temp;Humidity;BMP_temperature;BMP_pressure;BME280_temperature;BME280_humidity;BME280_pressure;Samples;Min_cycle;Max_cycle;Signal;HPM_P1;HPM_P2
2023/12/14 00:01:34;;;;;;;7.65;5.10;;;5.60;99.90;;;;;;6120551;23;20458;-35
2023/12/14 00:03:59;;;;;;;7.50;5.00;;;5.60;99.90;;;;;;6143580;23;20025;-35
2023/12/14 00:06:25;;;;;;;8.13;5.57;;;5.60;99.90;;;;;;6146409;23;20104;-35
2023/12/14 00:08:51;;;;;;;7.75;5.63;;;5.60;99.90;;;;;;6145550;23;20100;-35
2023/12/14 00:11:16;;;;;;;7.60;5.45;;;5.60;99.90;;;;;;6146561;23;20434;-35
2023/12/14 00:13:42;;;;;;;7.78;5.55;;;5.60;99.90;;;;;;6146942;23;20405;-34
2023/12/14 00:16:08;;;;;;;7.50;5.43;;;5.60;99.90;;;;;;6143527;23;20478;-35
2023/12/14 00:18:35;;;;;;;8.43;5.90;;;5.60;99.90;;;;;;6119560;23;20512;-35
2023/12/14 00:21:01;;;;;;;10.50;5.97;;;5.60;99.90;;;;;;6143809;23;20021;-35
2023/12/14 00:23:26;;;;;;;9.82;5.78;;;5.60;99.90;;;;;;6147107;23;20068;-35
2023/12/14 00:25:52;;;;;;;10.30;5.80;;;5.60;99.90;;;;;;6144766;23;20527;-35
2023/12/14 00:28:18;;;;;;;10.30;6.00;;;5.60;99.90;;;;;;6120117;23;20335;-35
2023/12/14 00:30:43;;;;;;;10.43;6.25;;;5.60;99.90;;;;;;6148194;23;20148;-35
2023/12/14 00:33:09;;;;;;;8.32;5.65;;;5.60;99.90;;;;;;6147037;23;20068;-35
2023/12/14 00:35:35;;;;;;;8.30;5.65;;;5.60;99.90;;;;;;6146459;23;20045;-34
2023/12/14 00:38:00;;;;;;;8.50;5.93;;;5.60;99.90;;;;;;6147823;23;20018;-35
2023/12/14 00:40:26;;;;;;;8.98;5.63;;;5.60;99.90;;;;;;6147705;23;20021;-35
2023/12/14 00:42:52;;;;;;;8.07;5.93;;;5.60;99.90;;;;;;6146970;23;20041;-35
2023/12/14 00:45:17;;;;;;;9.48;5.82;;;5.60;99.90;;;;;;6148297;23;20094;-35
2023/12/14 00:47:43;;;;;;;8.85;5.50;;;5.60;99.90;;;;;;6149923;23;20017;-35
2023/12/14 00:50:09;;;;;;;7.60;5.72;;;5.60;99.90;;;;;;6123405;23;20044;-35
2023/12/14 00:52:35;;;;;;;7.75;5.40;;;5.60;99.90;;;;;;6150434;23;20427;-35
2023/12/14 00:55:00;;;;;;;7.63;5.22;;;5.60;99.90;;;;;;6148293;23;20206;-35
2023/12/14 00:57:26;;;;;;;7.50;5.30;;;5.60;99.90;;;;;;6148985;23;20029;-35
2023/12/14 00:59:52;;;;;;;7.85;5.38;;;5.50;99.90;;;;;;6148696;23;20041;-34
2023/12/14 01:02:17;;;;;;;6.93;5.05;;;5.50;99.90;;;;;;6147430;23;20029;-35
2023/12/14 01:04:43;;;;;;;9.07;5.03;;;5.50;99.90;;;;;;6150252;23;20028;-40
2023/12/14 01:07:09;;;;;;;8.15;5.40;;;5.50;99.90;;;;;;6149330;23;20037;-34
2023/12/14 01:09:35;;;;;;;6.80;4.70;;;5.60;99.90;;;;;;6149492;23;20482;-35
2023/12/14 01:12:00;;;;;;;7.90;4.80;;;5.50;99.90;;;;;;6149121;23;20045;-34
2023/12/14 01:14:26;;;;;;;7.70;4.75;;;5.50;99.90;;;;;;6148910;23;20031;-34
2023/12/14 01:16:52;;;;;;;7.28;4.78;;;5.50;99.90;;;;;;6150048;23;20022;-35
2023/12/14 01:19:17;;;;;;;6.95;4.07;;;5.50;99.90;;;;;;6148330;23;20017;-36
2023/12/14 01:21:43;;;;;;;5.68;4.18;;;5.50;99.90;;;;;;6151020;23;20113;-35
2023/12/14 01:24:09;;;;;;;7.30;4.82;;;5.50;99.90;;;;;;6147978;23;20088;-34
2023/12/14 01:26:34;;;;;;;7.43;4.80;;;5.50;99.90;;;;;;6148076;23;20021;-35
2023/12/14 01:29:00;;;;;;;7.50;5.18;;;5.50;99.90;;;;;;6149119;23;20025;-36
2023/12/14 01:31:26;;;;;;;8.15;5.28;;;5.50;99.90;;;;;;6148733;23;20024;-35
2023/12/14 01:33:52;;;;;;;10.80;6.10;;;5.50;99.90;;;;;;6149145;23;20261;-35
2023/12/14 01:36:25;;;;;;;9.00;5.82;;;5.50;99.90;;;;;;6147162;23;20413;-36
2023/12/14 01:38:52;;;;;;;11.27;6.65;;;5.50;99.90;;;;;;6122940;23;20025;-35
2023/12/14 01:41:18;;;;;;;8.70;5.35;;;5.50;99.90;;;;;;6146636;23;20036;-36
2023/12/14 01:43:44;;;;;;;9.77;6.18;;;5.50;99.90;;;;;;6149658;23;20457;-35
2023/12/14 01:46:10;;;;;;;8.48;5.40;;;5.50;99.90;;;;;;6148424;23;20088;-36
2023/12/14 01:48:36;;;;;;;9.20;5.57;;;5.50;99.90;;;;;;6148520;23;20037;-35
2023/12/14 01:51:02;;;;;;;8.68;5.78;;;5.50;99.90;;;;;;6147626;23;20068;-35
2023/12/14 01:53:27;;;;;;;13.25;7.25;;;5.50;99.90;;;;;;6148149;23;20040;-34
2023/12/14 01:55:53;;;;;;;13.02;5.82;;;5.50;99.90;;;;;;6148713;23;20021;-45
2023/12/14 01:58:19;;;;;;;10.25;6.53;;;5.50;99.90;;;;;;6148491;23;20029;-34
2023/12/14 02:01:30;;;;;;;10.82;5.60;;;5.50;99.90;;;;;;6149277;23;20021;-35
2023/12/14 02:03:55;;;;;;;8.52;5.43;;;5.50;99.90;;;;;;6103273;23;20025;-35
2023/12/14 02:06:21;;;;;;;8.90;5.65;;;5.50;99.90;;;;;;6149972;23;20084;-36
2023/12/14 02:08:47;;;;;;;10.88;5.78;;;5.50;99.90;;;;;;6147286;23;20025;-35
2023/12/14 02:11:13;;;;;;;8.73;5.63;;;5.50;99.90;;;;;;6149995;23;20021;-35
2023/12/14 02:13:38;;;;;;;7.68;4.97;;;5.40;99.90;;;;;;6147527;23;20025;-35
2023/12/14 02:16:04;;;;;;;8.85;5.97;;;5.40;99.90;;;;;;6147244;23;20032;-35
2023/12/14 02:18:30;;;;;;;9.35;5.65;;;5.40;99.90;;;;;;6148252;23;20111;-34
2023/12/14 02:20:56;;;;;;;7.32;5.13;;;5.40;99.90;;;;;;6145951;23;20401;-34
2023/12/14 02:23:22;;;;;;;10.73;5.82;;;5.40;99.90;;;;;;6097869;23;20021;-36
2023/12/14 02:25:47;;;;;;;11.38;6.47;;;5.40;99.90;;;;;;6135787;23;20045;-35
2023/12/14 02:28:13;;;;;;;11.95;5.70;;;5.40;99.90;;;;;;6122466;23;20018;-35
2023/12/14 02:30:38;;;;;;;12.77;6.63;;;5.40;99.90;;;;;;6148187;23;20021;-35
2023/12/14 02:33:04;;;;;;;16.10;6.80;;;5.40;99.90;;;;;;6149961;23;20030;-35
2023/12/14 02:35:30;;;;;;;12.27;6.10;;;5.40;99.90;;;;;;6149173;23;20020;-35
2023/12/14 02:37:55;;;;;;;10.40;6.32;;;5.40;99.90;;;;;;6148615;23;20024;-36
2023/12/14 02:40:21;;;;;;;10.05;5.85;;;5.40;99.90;;;;;;6149139;23;20030;-36
2023/12/14 02:42:47;;;;;;;12.85;6.25;;;5.30;99.90;;;;;;6149105;23;20045;-36
2023/12/14 02:45:12;;;;;;;10.95;5.30;;;5.30;99.90;;;;;;6146657;23;20369;-35
2023/12/14 02:47:38;;;;;;;8.88;5.18;;;5.30;99.90;;;;;;6149116;23;20107;-35
2023/12/14 02:50:04;;;;;;;10.20;5.15;;;5.20;99.90;;;;;;6148141;23;20025;-36
2023/12/14 02:52:30;;;;;;;8.52;5.55;;;5.30;99.90;;;;;;6150122;23;20021;-34
2023/12/14 02:54:55;;;;;;;10.55;5.45;;;5.20;99.90;;;;;;6147266;23;20026;-35
2023/12/14 02:57:21;;;;;;;7.90;4.90;;;5.20;99.90;;;;;;6149785;23;20067;-34
2023/12/14 02:59:47;;;;;;;9.20;4.97;;;5.20;99.90;;;;;;6148206;23;20481;-35
2023/12/14 03:02:12;;;;;;;7.63;4.35;;;5.20;99.90;;;;;;6149317;23;20516;-35
2023/12/14 03:04:41;;;;;;;8.07;4.57;;;5.20;99.90;;;;;;6148952;23;20025;-36
2023/12/14 03:07:07;;;;;;;9.32;5.72;;;5.20;99.90;;;;;;6148560;23;20026;-34
2023/12/14 03:09:34;;;;;;;8.10;5.15;;;5.20;99.90;;;;;;6123880;23;20021;-35
2023/12/14 03:12:00;;;;;;;8.02;4.85;;;5.10;99.90;;;;;;6149513;23;20047;-34
2023/12/14 03:14:26;;;;;;;7.97;4.35;;;5.10;99.90;;;;;;6148190;23;20104;-34
2023/12/14 03:16:52;;;;;;;9.10;4.93;;;5.10;99.90;;;;;;6148967;23;20116;-34
2023/12/14 03:19:18;;;;;;;6.78;4.22;;;5.10;99.90;;;;;;6148023;23;20477;-35
2023/12/14 03:21:43;;;;;;;7.70;4.53;;;5.10;99.90;;;;;;6121790;23;20079;-35
2023/12/14 03:24:09;;;;;;;8.32;4.15;;;5.10;99.90;;;;;;6153342;23;20025;-34
2023/12/14 03:26:35;;;;;;;7.70;4.80;;;5.10;99.90;;;;;;6177065;23;20029;-35
2023/12/14 03:29:01;;;;;;;8.52;4.55;;;5.10;99.90;;;;;;6179156;23;20031;-35
2023/12/14 03:31:27;;;;;;;8.23;4.68;;;5.10;99.90;;;;;;6177548;23;20071;-34
2023/12/14 03:33:53;;;;;;;7.63;4.95;;;5.10;99.90;;;;;;6179059;23;20021;-34
2023/12/14 03:36:18;;;;;;;8.27;5.22;;;5.10;99.90;;;;;;6178954;23;20388;-35
2023/12/14 03:38:44;;;;;;;6.88;4.45;;;5.20;99.90;;;;;;6177444;23;20083;-34
2023/12/14 03:41:09;;;;;;;5.93;3.95;;;5.10;99.90;;;;;;6178198;23;20051;-34
2023/12/14 03:43:35;;;;;;;8.35;4.57;;;5.20;99.90;;;;;;6177927;23;20096;-34
2023/12/14 03:46:01;;;;;;;7.53;4.55;;;5.10;99.90;;;;;;6177930;23;20468;-34
2023/12/14 03:48:26;;;;;;;7.30;3.90;;;5.10;99.90;;;;;;6178882;23;20025;-35
2023/12/14 03:50:52;;;;;;;7.03;4.00;;;5.10;99.90;;;;;;6176789;23;20028;-35
2023/12/14 03:53:18;;;;;;;7.13;3.97;;;5.10;99.90;;;;;;6179200;23;20158;-35
2023/12/14 03:55:44;;;;;;;5.40;3.58;;;5.10;99.90;;;;;;6177759;23;20028;-34
2023/12/14 03:58:10;;;;;;;5.72;3.63;;;5.10;99.90;;;;;;6178377;23;20018;-34
2023/12/14 04:00:36;;;;;;;5.45;3.33;;;5.10;99.90;;;;;;6177521;23;20090;-35
2023/12/14 04:03:01;;;;;;;5.60;3.63;;;5.10;99.90;;;;;;6178180;23;20078;-35
2023/12/14 04:05:27;;;;;;;5.45;3.60;;;5.10;99.90;;;;;;6176928;23;20009;-35
2023/12/14 04:07:53;;;;;;;5.20;3.67;;;5.00;99.90;;;;;;6178434;23;20009;-35
2023/12/14 04:10:19;;;;;;;5.18;3.35;;;5.00;99.90;;;;;;6178215;23;20388;-34
2023/12/14 04:12:44;;;;;;;6.88;3.95;;;5.10;99.90;;;;;;6177271;23;20044;-34
2023/12/14 04:15:10;;;;;;;6.40;4.03;;;5.10;99.90;;;;;;6178395;23;20025;-34
2023/12/14 04:17:36;;;;;;;6.10;3.60;;;5.00;99.90;;;;;;6177592;23;20029;-34
2023/12/14 04:20:02;;;;;;;6.03;3.90;;;5.10;99.90;;;;;;6175343;23;20103;-34
2023/12/14 04:22:28;;;;;;;6.10;3.72;;;5.00;99.90;;;;;;6178585;23;20013;-34
2023/12/14 04:24:54;;;;;;;7.80;4.07;;;5.00;99.90;;;;;;6176406;23;20013;-34
2023/12/14 04:27:20;;;;;;;7.97;4.53;;;5.10;99.90;;;;;;6177981;23;20035;-35
2023/12/14 04:29:46;;;;;;;7.55;4.20;;;5.10;99.90;;;;;;6177821;23;20033;-34
2023/12/14 04:32:12;;;;;;;6.97;4.30;;;5.10;99.90;;;;;;6181138;23;20542;-35
2023/12/14 04:34:37;;;;;;;7.90;4.40;;;5.10;99.90;;;;;;6179100;23;20021;-35
2023/12/14 04:37:03;;;;;;;7.53;4.32;;;5.10;99.90;;;;;;6178098;23;20035;-34
2023/12/14 04:39:29;;;;;;;13.82;5.70;;;5.10;99.90;;;;;;6180682;23;20029;-34
2023/12/14 04:41:54;;;;;;;9.32;4.93;;;5.10;99.90;;;;;;6178464;23;20016;-34
2023/12/14 04:44:23;;;;;;;14.35;6.43;;;5.00;99.90;;;;;;6180222;23;20052;-35
2023/12/14 04:46:50;;;;;;;13.85;6.10;;;5.00;99.90;;;;;;6152244;23;20028;-34
2023/12/14 04:49:16;;;;;;;15.13;6.53;;;5.00;99.90;;;;;;6180860;23;20479;-35
2023/12/14 04:51:42;;;;;;;12.95;5.70;;;5.00;99.90;;;;;;6181453;23;20457;-34
2023/12/14 04:54:08;;;;;;;8.82;5.00;;;5.00;99.90;;;;;;6178506;23;20358;-34
2023/12/14 04:56:34;;;;;;;10.43;5.03;;;5.00;99.90;;;;;;6180105;23;20027;-34
2023/12/14 04:59:00;;;;;;;10.20;5.30;;;5.00;99.90;;;;;;6178752;23;20021;-35
2023/12/14 05:01:26;;;;;;;8.88;5.30;;;5.00;99.90;;;;;;6179854;23;20021;-35
2023/12/14 05:03:55;;;;;;;14.85;5.97;;;5.00;99.90;;;;;;6179289;23;20029;-35
2023/12/14 05:06:21;;;;;;;12.35;6.13;;;5.00;99.90;;;;;;6180512;23;20029;-35
2023/12/14 05:08:47;;;;;;;9.73;5.53;;;5.00;99.90;;;;;;6180426;23;20079;-35
2023/12/14 05:11:13;;;;;;;8.30;5.03;;;5.00;99.90;;;;;;6179629;23;20404;-35
2023/12/14 05:13:40;;;;;;;9.10;5.22;;;5.00;99.90;;;;;;6179735;23;20044;-35
2023/12/14 05:16:06;;;;;;;10.55;5.75;;;5.00;99.90;;;;;;6178304;23;20632;-34
2023/12/14 05:18:31;;;;;;;11.05;5.55;;;5.00;99.90;;;;;;6179560;23;20031;-34
2023/12/14 05:20:57;;;;;;;9.57;5.25;;;5.00;99.90;;;;;;6178144;23;20017;-34
2023/12/14 05:23:23;;;;;;;10.20;5.85;;;5.00;99.90;;;;;;6180042;23;20025;-35
2023/12/14 05:25:49;;;;;;;9.68;5.57;;;5.00;99.90;;;;;;6156795;23;20508;-35
2023/12/14 05:28:15;;;;;;;10.38;5.60;;;5.00;99.90;;;;;;6149704;23;20021;-35
2023/12/14 05:30:41;;;;;;;9.82;5.43;;;5.00;99.90;;;;;;6149561;23;20100;-34
2023/12/14 05:33:07;;;;;;;8.23;5.47;;;5.00;99.90;;;;;;6148946;23;20060;-36
2023/12/14 05:35:33;;;;;;;9.93;5.18;;;5.00;99.90;;;;;;6148347;23;20021;-37
2023/12/14 05:37:58;;;;;;;7.75;4.93;;;5.00;99.90;;;;;;6148362;23;20096;-36
2023/12/14 05:40:24;;;;;;;8.75;5.07;;;5.00;99.90;;;;;;6150486;23;20096;-34
2023/12/14 05:42:51;;;;;;;9.70;5.53;;;5.00;99.90;;;;;;6149977;23;20033;-33
2023/12/14 05:45:18;;;;;;;9.52;4.95;;;5.00;99.90;;;;;;6149679;23;20021;-34
2023/12/14 05:47:44;;;;;;;9.82;5.25;;;5.00;99.90;;;;;;6150231;23;20025;-35
2023/12/14 05:50:10;;;;;;;9.23;5.35;;;5.00;99.90;;;;;;6146535;23;20070;-34
2023/12/14 05:52:36;;;;;;;7.85;4.57;;;5.00;99.90;;;;;;6150681;23;20029;-34
2023/12/14 05:55:02;;;;;;;8.30;4.63;;;5.00;99.90;;;;;;6149279;23;20477;-34
2023/12/14 05:57:28;;;;;;;11.93;5.20;;;5.00;99.90;;;;;;6148852;23;20071;-35
2023/12/14 05:59:53;;;;;;;9.70;4.90;;;5.00;99.90;;;;;;6149932;23;20029;-34
2023/12/14 06:02:19;;;;;;;5.60;3.92;;;5.00;99.90;;;;;;6148780;23;20028;-34
2023/12/14 06:04:45;;;;;;;6.28;3.88;;;5.00;99.90;;;;;;6150198;23;20031;-35
2023/12/14 06:07:13;;;;;;;6.72;4.15;;;5.00;99.90;;;;;;6148944;23;20026;-34
2023/12/14 06:09:39;;;;;;;7.80;4.20;;;5.00;99.90;;;;;;6149064;23;20022;-34
2023/12/14 06:12:05;;;;;;;7.63;4.78;;;5.00;99.90;;;;;;6150172;23;20025;-34
2023/12/14 06:14:31;;;;;;;8.45;4.53;;;5.00;99.90;;;;;;6148995;23;20478;-34
2023/12/14 06:16:57;;;;;;;9.02;4.85;;;5.00;99.90;;;;;;6148992;23;20044;-34
2023/12/14 06:19:23;;;;;;;9.02;4.47;;;5.00;99.90;;;;;;6149187;23;20029;-36
2023/12/14 06:21:49;;;;;;;9.60;4.40;;;5.00;99.90;;;;;;6148153;23;20018;-35
2023/12/14 06:24:15;;;;;;;12.05;4.95;;;5.00;99.90;;;;;;6149770;23;20071;-34
2023/12/14 06:26:44;;;;;;;8.32;4.50;;;5.00;99.90;;;;;;6149398;23;20364;-34
2023/12/14 06:29:11;;;;;;;9.52;4.75;;;5.00;99.90;;;;;;6150489;23;20021;-35
2023/12/14 06:31:37;;;;;;;8.27;5.00;;;5.00;99.90;;;;;;6148117;23;20048;-34
2023/12/14 06:34:03;;;;;;;11.80;5.43;;;5.00;99.90;;;;;;6148003;23;20082;-35
2023/12/14 06:36:34;;;;;;;8.70;5.22;;;5.00;99.90;;;;;;6148535;23;20033;-35
2023/12/14 06:39:00;;;;;;;12.35;5.50;;;5.00;99.90;;;;;;6149785;23;20334;-35
2023/12/14 06:41:27;;;;;;;11.90;5.13;;;5.00;99.90;;;;;;6146661;23;20491;-34
2023/12/14 06:43:54;;;;;;;9.35;4.97;;;5.00;99.90;;;;;;6148291;23;20014;-34
2023/12/14 06:46:20;;;;;;;10.07;5.63;;;5.00;99.90;;;;;;6147908;23;20326;-34
2023/12/14 06:48:46;;;;;;;10.43;6.03;;;5.00;99.90;;;;;;6147222;23;20025;-34
2023/12/14 06:51:11;;;;;;;11.80;5.65;;;5.00;99.90;;;;;;6147412;23;20018;-34
2023/12/14 06:53:40;;;;;;;9.10;5.03;;;5.00;99.90;;;;;;6148128;23;20024;-34
2023/12/14 06:56:10;;;;;;;8.32;5.15;;;5.00;99.90;;;;;;6148960;23;20116;-34
2023/12/14 06:58:43;;;;;;;9.82;4.57;;;5.00;99.90;;;;;;6148558;23;20072;-34
2023/12/14 07:01:16;;;;;;;9.85;5.32;;;5.00;99.90;;;;;;6148746;23;20013;-34
2023/12/14 07:03:44;;;;;;;13.00;5.78;;;5.00;99.90;;;;;;6148454;23;20028;-34
2023/12/14 07:06:16;;;;;;;9.68;4.57;;;5.00;99.90;;;;;;6146262;23;20101;-34
2023/12/14 07:08:43;;;;;;;7.35;4.63;;;5.00;99.90;;;;;;6147746;23;20453;-34
2023/12/14 07:11:10;;;;;;;10.32;5.15;;;5.00;99.90;;;;;;6146895;23;20025;-34
2023/12/14 07:13:38;;;;;;;9.00;4.88;;;5.00;99.90;;;;;;6145712;23;20330;-34
2023/12/14 07:16:09;;;;;;;11.05;4.85;;;5.00;99.90;;;;;;6146680;23;20025;-34
2023/12/14 07:18:35;;;;;;;9.50;5.18;;;5.00;99.90;;;;;;6148439;23;20109;-34
2023/12/14 07:21:02;;;;;;;9.77;5.18;;;5.00;99.90;;;;;;6149892;23;20021;-34
2023/12/14 07:23:28;;;;;;;8.10;4.35;;;5.00;99.90;;;;;;6146833;23;20145;-34
2023/12/14 07:25:54;;;;;;;7.78;4.90;;;5.00;99.90;;;;;;6149210;23;20038;-34
2023/12/14 07:28:20;;;;;;;12.10;4.72;;;5.00;99.90;;;;;;6146108;23;20017;-35
2023/12/14 07:30:46;;;;;;;8.75;5.38;;;5.00;99.90;;;;;;6145623;23;20028;-35
2023/12/14 07:33:12;;;;;;;11.95;4.90;;;5.00;99.90;;;;;;6147227;23;20401;-35
2023/12/14 07:35:38;;;;;;;8.80;4.65;;;5.00;99.90;;;;;;6146934;23;20423;-35
2023/12/14 07:38:03;;;;;;;8.43;5.28;;;5.00;99.90;;;;;;6150032;23;20409;-35
2023/12/14 07:40:29;;;;;;;8.65;5.07;;;5.00;99.90;;;;;;6147415;23;20035;-34
2023/12/14 07:42:55;;;;;;;9.10;5.13;;;5.00;99.90;;;;;;6148788;23;20017;-34
2023/12/14 07:45:20;;;;;;;8.73;4.82;;;5.00;99.90;;;;;;6147346;23;20361;-35
2023/12/14 07:47:46;;;;;;;10.68;5.10;;;5.00;99.90;;;;;;6145723;23;20092;-34
2023/12/14 07:50:12;;;;;;;8.52;5.00;;;5.00;99.90;;;;;;6146275;23;20026;-34
2023/12/14 07:52:38;;;;;;;8.75;4.85;;;5.00;99.90;;;;;;6146609;23;20021;-36
2023/12/14 07:55:05;;;;;;;7.70;4.47;;;5.00;99.90;;;;;;6148967;23;20516;-35
2023/12/14 07:57:31;;;;;;;9.57;4.70;;;5.00;99.90;;;;;;6147589;23;20021;-36
2023/12/14 07:59:57;;;;;;;9.27;5.53;;;5.00;99.90;;;;;;6146847;23;20034;-37
2023/12/14 08:02:23;;;;;;;9.90;5.22;;;5.00;99.90;;;;;;6148465;23;20020;-36
2023/12/14 08:04:48;;;;;;;10.43;4.70;;;5.00;99.90;;;;;;6147767;23;20014;-44
2023/12/14 08:07:14;;;;;;;9.98;4.65;;;5.00;99.90;;;;;;6149066;23;20144;-35
2023/12/14 08:09:40;;;;;;;10.55;5.30;;;5.00;99.90;;;;;;6148340;23;20067;-35
2023/12/14 08:12:06;;;;;;;9.98;4.82;;;5.00;99.90;;;;;;6151633;23;20018;-35
2023/12/14 08:14:35;;;;;;;9.32;4.88;;;5.00;99.90;;;;;;6147403;23;20022;-35
2023/12/14 08:17:01;;;;;;;10.65;5.53;;;5.00;99.90;;;;;;6150296;23;20111;-36
2023/12/14 08:19:27;;;;;;;10.00;5.40;;;5.00;99.90;;;;;;6147387;23;20025;-35
2023/12/14 08:21:53;;;;;;;10.60;5.68;;;5.10;99.90;;;;;;6151026;23;20068;-35
2023/12/14 08:24:19;;;;;;;11.07;5.28;;;5.10;99.90;;;;;;6147087;23;20490;-35
2023/12/14 08:26:44;;;;;;;10.00;5.45;;;5.00;99.90;;;;;;6149983;23;20033;-35
2023/12/14 08:29:10;;;;;;;9.85;5.15;;;5.10;99.90;;;;;;6148977;23;20036;-35
2023/12/14 08:31:36;;;;;;;11.23;5.72;;;5.00;99.90;;;;;;6148641;23;20014;-35
2023/12/14 08:34:03;;;;;;;11.82;5.63;;;5.10;99.90;;;;;;6147708;23;20480;-35
2023/12/14 08:36:29;;;;;;;10.57;5.60;;;5.10;99.90;;;;;;6147781;23;20014;-34
2023/12/14 08:38:54;;;;;;;8.65;5.88;;;5.10;99.90;;;;;;6149533;23;20064;-36
2023/12/14 08:41:20;;;;;;;10.13;6.10;;;5.10;99.90;;;;;;6146867;23;20022;-37
2023/12/14 08:43:46;;;;;;;10.35;5.90;;;5.10;99.90;;;;;;6148041;23;20371;-35
2023/12/14 08:46:12;;;;;;;10.88;5.82;;;5.10;99.90;;;;;;6150184;23;20028;-35
2023/12/14 08:48:37;;;;;;;11.70;6.13;;;5.10;99.90;;;;;;6147782;23;20021;-35
2023/12/14 08:51:04;;;;;;;11.55;5.60;;;5.20;99.90;;;;;;6150153;23;20024;-35
2023/12/14 08:53:29;;;;;;;12.07;6.20;;;5.20;99.90;;;;;;6148639;23;20021;-34
2023/12/14 08:55:55;;;;;;;13.18;5.80;;;5.20;99.90;;;;;;6150467;23;20357;-34
2023/12/14 08:58:21;;;;;;;12.70;6.45;;;5.20;99.90;;;;;;6149648;23;20675;-35
2023/12/14 09:00:47;;;;;;;12.45;6.25;;;5.20;99.90;;;;;;6148905;23;20025;-35
2023/12/14 09:03:12;;;;;;;13.55;6.25;;;5.20;99.90;;;;;;6149653;23;20064;-34
2023/12/14 09:05:41;;;;;;;11.80;6.40;;;5.30;99.90;;;;;;6146530;23;20024;-35
2023/12/14 09:08:07;;;;;;;15.02;6.35;;;5.30;99.90;;;;;;6147556;23;20096;-35
2023/12/14 09:10:33;;;;;;;14.00;6.78;;;5.30;99.90;;;;;;6148488;23;20082;-35
2023/12/14 09:13:00;;;;;;;11.77;6.55;;;5.30;99.90;;;;;;6149794;23;20021;-35
2023/12/14 09:15:25;;;;;;;13.10;6.32;;;5.30;99.90;;;;;;6147909;23;20393;-35
2023/12/14 09:17:51;;;;;;;12.95;6.55;;;5.30;99.90;;;;;;6147570;23;20034;-35
2023/12/14 09:20:17;;;;;;;13.27;6.40;;;5.40;99.90;;;;;;6150372;23;20034;-35
2023/12/14 09:22:43;;;;;;;13.30;6.15;;;5.40;99.90;;;;;;6148242;23;20385;-36
2023/12/14 09:25:09;;;;;;;16.17;5.95;;;5.30;99.90;;;;;;6149382;23;20461;-38
2023/12/14 09:27:35;;;;;;;14.25;6.57;;;5.30;99.90;;;;;;6148402;23;20132;-35
2023/12/14 09:30:01;;;;;;;11.68;6.05;;;5.30;99.90;;;;;;6149813;23;20017;-35
2023/12/14 09:32:26;;;;;;;13.88;6.68;;;5.30;99.90;;;;;;6148086;23;20457;-35
2023/12/14 09:34:56;;;;;;;12.95;6.45;;;5.30;99.90;;;;;;6149698;23;20045;-42
2023/12/14 09:37:22;;;;;;;10.50;6.03;;;5.30;99.90;;;;;;6150212;23;20036;-35
2023/12/14 09:39:47;;;;;;;12.20;6.15;;;5.30;99.90;;;;;;6149126;23;20029;-35
2023/12/14 09:42:19;;;;;;;12.32;6.93;;;5.30;99.90;;;;;;6173006;23;20017;-35
2023/12/14 09:44:46;;;;;;;11.23;6.00;;;5.30;99.90;;;;;;6148224;23;20032;-35
2023/12/14 09:47:12;;;;;;;12.57;6.35;;;5.40;99.90;;;;;;6149378;23;20101;-36
2023/12/14 09:49:40;;;;;;;11.05;6.05;;;5.30;99.90;;;;;;6148983;23;20057;-35
2023/12/14 09:52:06;;;;;;;12.35;7.03;;;5.40;99.90;;;;;;6148916;23;20021;-36
2023/12/14 09:54:32;;;;;;;12.30;6.35;;;5.40;99.90;;;;;;6149117;23;20031;-36
2023/12/14 09:56:58;;;;;;;12.38;6.28;;;5.40;99.90;;;;;;6148746;23;20338;-35
2023/12/14 09:59:24;;;;;;;15.52;6.53;;;5.50;99.90;;;;;;6150495;23;20024;-35
2023/12/14 10:01:49;;;;;;;11.63;5.95;;;5.50;99.90;;;;;;6147404;23;20402;-35
2023/12/14 10:04:18;;;;;;;10.70;6.20;;;5.50;99.90;;;;;;6149184;23;20057;-36
2023/12/14 10:06:46;;;;;;;10.95;5.60;;;5.50;99.90;;;;;;6148720;23;20068;-35
2023/12/14 10:09:15;;;;;;;13.25;6.45;;;5.50;99.90;;;;;;6147962;23;20017;-36
2023/12/14 10:11:41;;;;;;;11.38;6.03;;;5.50;99.90;;;;;;6147393;23;20018;-35
2023/12/14 10:14:25;;;;;;;11.80;5.95;;;5.50;99.90;;;;;;6147072;23;20017;-36
2023/12/14 10:16:51;;;;;;;11.63;6.85;;;5.60;99.90;;;;;;6147686;23;20036;-35
2023/12/14 10:19:18;;;;;;;11.60;6.10;;;5.60;99.90;;;;;;6148040;23;20017;-34
2023/12/14 10:21:46;;;;;;;13.88;6.60;;;5.60;99.90;;;;;;6147474;23;20044;-35
2023/12/14 10:24:12;;;;;;;13.18;6.75;;;5.60;99.90;;;;;;6148496;23;20509;-35
2023/12/14 10:26:38;;;;;;;9.05;6.03;;;5.60;99.90;;;;;;6146073;23;20017;-36
2023/12/14 10:29:07;;;;;;;13.23;6.07;;;5.60;99.90;;;;;;6149885;23;20025;-35
2023/12/14 10:31:37;;;;;;;11.95;6.47;;;5.70;99.90;;;;;;6147620;23;20480;-35
2023/12/14 10:34:06;;;;;;;11.52;6.43;;;5.70;99.90;;;;;;6171693;23;20013;-35
2023/12/14 10:36:33;;;;;;;12.73;5.57;;;5.70;99.90;;;;;;6146645;23;20032;-35
2023/12/14 10:39:00;;;;;;;10.95;6.07;;;5.80;99.90;;;;;;6149201;23;20024;-36
2023/12/14 10:41:29;;;;;;;11.10;6.00;;;5.80;99.90;;;;;;6144874;23;20064;-35
2023/12/14 10:43:56;;;;;;;11.38;6.05;;;5.90;99.90;;;;;;6124500;23;20076;-36
2023/12/14 10:46:23;;;;;;;10.38;5.78;;;6.00;99.90;;;;;;6149015;23;20033;-36
2023/12/14 10:48:52;;;;;;;12.45;5.97;;;6.00;99.90;;;;;;6147908;23;20025;-36
2023/12/14 10:51:20;;;;;;;10.60;5.93;;;6.10;99.90;;;;;;6146653;23;20021;-35
2023/12/14 10:53:51;;;;;;;10.15;5.70;;;6.10;99.90;;;;;;6147062;23;20032;-35
2023/12/14 10:56:18;;;;;;;10.85;5.80;;;6.10;99.90;;;;;;6147694;23;20030;-35
2023/12/14 10:58:51;;;;;;;11.70;5.97;;;6.10;99.90;;;;;;6147462;23;20035;-35
2023/12/14 11:01:20;;;;;;;12.27;6.15;;;6.20;99.90;;;;;;6146698;23;20393;-35
2023/12/14 11:03:47;;;;;;;10.48;5.82;;;6.10;99.90;;;;;;6147204;23;20072;-35
2023/12/14 11:06:35;;;;;;;10.57;5.65;;;6.10;99.90;;;;;;6149273;23;20040;-35
2023/12/14 11:09:13;;;;;;;8.95;5.00;;;6.20;99.90;;;;;;6147626;23;20324;-36
2023/12/14 11:11:58;;;;;;;9.32;4.93;;;6.20;99.90;;;;;;6148663;23;20461;-35
2023/12/14 11:14:26;;;;;;;11.85;5.55;;;6.30;99.90;;;;;;6146586;23;20623;-35
2023/12/14 11:16:57;;;;;;;10.45;5.47;;;6.40;99.90;;;;;;6148313;23;20021;-35
2023/12/14 11:19:23;;;;;;;8.18;5.22;;;6.40;99.90;;;;;;6146408;23;20057;-35
2023/12/14 11:21:56;;;;;;;8.05;4.70;;;6.40;99.90;;;;;;6147599;23;20025;-36
2023/12/14 11:24:22;;;;;;;8.43;5.22;;;6.50;99.90;;;;;;6146058;23;20532;-35
2023/12/14 11:26:50;;;;;;;11.50;5.32;;;6.50;99.90;;;;;;6146437;23;20083;-36
2023/12/14 11:29:20;;;;;;;11.35;5.18;;;6.60;99.90;;;;;;6147798;23;20081;-36
2023/12/14 11:31:46;;;;;;;9.60;5.05;;;6.70;99.90;;;;;;6146180;23;20496;-36
2023/12/14 11:34:14;;;;;;;10.07;4.88;;;6.70;99.90;;;;;;6147139;23;20028;-35
2023/12/14 11:36:41;;;;;;;7.35;4.55;;;6.70;99.90;;;;;;6145252;23;20049;-35
2023/12/14 11:39:11;;;;;;;7.57;4.82;;;6.70;99.90;;;;;;6148534;23;20018;-36
2023/12/14 11:41:38;;;;;;;9.55;5.30;;;6.60;99.90;;;;;;6147799;23;20406;-36
2023/12/14 11:44:04;;;;;;;9.20;4.82;;;6.60;99.90;;;;;;6147957;23;20021;-35
2023/12/14 11:46:30;;;;;;;10.13;5.20;;;6.60;99.90;;;;;;6145670;23;20398;-35
2023/12/14 11:49:03;;;;;;;8.27;5.10;;;6.50;99.90;;;;;;6146352;23;20103;-36
2023/12/14 11:51:30;;;;;;;9.52;5.50;;;6.50;99.90;;;;;;6147019;23;20068;-36
2023/12/14 11:54:00;;;;;;;11.10;5.30;;;6.50;99.90;;;;;;6145993;23;20556;-36
2023/12/14 11:56:25;;;;;;;10.88;5.47;;;6.50;99.90;;;;;;6146543;23;20036;-37
2023/12/14 11:58:53;;;;;;;10.23;5.57;;;6.60;99.90;;;;;;6146036;23;20366;-36
2023/12/14 12:01:21;;;;;;;9.80;5.00;;;6.70;99.90;;;;;;6147604;23;20021;-34
2023/12/14 12:03:47;;;;;;;7.35;4.35;;;6.70;99.90;;;;;;6145233;23;20018;-35
2023/12/14 12:06:30;;;;;;;9.30;4.43;;;6.80;99.90;;;;;;6146397;23;20483;-35
2023/12/14 12:08:56;;;;;;;8.18;4.28;;;6.80;99.90;;;;;;6146519;23;20021;-36
2023/12/14 12:11:25;;;;;;;9.38;4.68;;;6.90;99.90;;;;;;6144093;23;20032;-35
2023/12/14 12:13:58;;;;;;;10.98;5.85;;;7.00;99.90;;;;;;6145216;23;20471;-35
2023/12/14 12:16:23;;;;;;;10.40;5.40;;;7.00;99.90;;;;;;6146717;23;20017;-36
2023/12/14 12:18:50;;;;;;;11.73;6.03;;;7.00;99.90;;;;;;6144789;23;20080;-36
2023/12/14 12:21:16;;;;;;;11.10;5.93;;;7.00;99.90;;;;;;6169008;23;20055;-35
2023/12/14 12:23:42;;;;;;;12.70;5.70;;;6.90;99.90;;;;;;6147298;23;20096;-35
2023/12/14 12:26:08;;;;;;;10.93;6.13;;;6.90;99.90;;;;;;6144512;23;20021;-35
2023/12/14 12:28:33;;;;;;;11.63;5.70;;;6.90;99.90;;;;;;6146046;23;20080;-35
2023/12/14 12:31:00;;;;;;;11.35;5.03;;;6.90;99.90;;;;;;6146656;23;20358;-35
2023/12/14 12:33:26;;;;;;;8.75;4.57;;;6.80;99.90;;;;;;6145646;23;20017;-35
2023/12/14 12:35:52;;;;;;;9.00;4.35;;;6.70;99.90;;;;;;6146093;23;20045;-35
2023/12/14 12:38:18;;;;;;;7.70;4.50;;;6.70;99.90;;;;;;6148660;23;20457;-34
2023/12/14 12:40:44;;;;;;;9.75;4.57;;;6.60;99.90;;;;;;6144981;23;20374;-34
2023/12/14 12:43:12;;;;;;;9.13;4.78;;;6.60;99.90;;;;;;6148398;23;20024;-34
2023/12/14 12:45:37;;;;;;;9.32;4.95;;;6.50;99.90;;;;;;6147698;23;20029;-34
2023/12/14 12:48:04;;;;;;;8.52;4.80;;;6.50;99.90;;;;;;6144927;23;20021;-34
2023/12/14 12:50:30;;;;;;;9.25;5.13;;;6.50;99.90;;;;;;6147883;23;20017;-34